sensor_id;sensor_type;location;lat;lon;timestamp;P1;durP1;ratioP1;P2;durP2;ratioP2
30420;SDS011;17218;54.070;10.012;2022-11-15T00:00:31;49.03;;;30.73;;
30420;SDS011;17218;54.070;10.012;2022-11-15T00:02:58;52.67;;;29.80;;
30420;SDS011;17218;54.070;10.012;2022-11-15T00:05:24;47.60;;;28.93;;
30420;SDS011;17218;54.070;10.012;2022-11-15T00:07:51;47.87;;;30.27;;
30420;SDS011;17218;54.070;10.012;2022-11-15T00:10:17;47.60;;;28.17;;
30420;SDS011;17218;54.070;10.012;2022-11-15T00:12:44;50.30;;;29.67;;
30420;SDS011;17218;54.070;10.012;2022-11-15T00:15:11;52.60;;;31.47;;
30420;SDS011;17218;54.070;10.012;2022-11-15T00:17:39;52.00;;;30.83;;
30420;SDS011;17218;54.070;10.012;2022-11-15T00:20:06;54.07;;;30.73;;
30420;SDS011;17218;54.070;10.012;2022-11-15T00:22:33;53.73;;;30.37;;
30420;SDS011;17218;54.070;10.012;2022-11-15T00:25:00;53.07;;;28.63;;
30420;SDS011;17218;54.070;10.012;2022-11-15T00:27:27;48.37;;;27.70;;
30420;SDS011;17218;54.070;10.012;2022-11-15T00:29:53;48.67;;;29.43;;
30420;SDS011;17218;54.070;10.012;2022-11-15T00:32:20;46.10;;;27.00;;
30420;SDS011;17218;54.070;10.012;2022-11-15T00:34:48;52.07;;;29.20;;
30420;SDS011;17218;54.070;10.012;2022-11-15T00:37:14;51.57;;;29.73;;
30420;SDS011;17218;54.070;10.012;2022-11-15T00:39:41;49.37;;;29.57;;
30420;SDS011;17218;54.070;10.012;2022-11-15T00:42:07;45.50;;;28.07;;
30420;SDS011;17218;54.070;10.012;2022-11-15T00:44:34;44.97;;;29.20;;
30420;SDS011;17218;54.070;10.012;2022-11-15T00:47:01;50.87;;;30.40;;
30420;SDS011;17218;54.070;10.012;2022-11-15T00:49:28;52.40;;;30.70;;
30420;SDS011;17218;54.070;10.012;2022-11-15T00:51:56;45.67;;;28.73;;
30420;SDS011;17218;54.070;10.012;2022-11-15T00:54:22;50.20;;;29.90;;
30420;SDS011;17218;54.070;10.012;2022-11-15T00:56:49;49.07;;;30.63;;
30420;SDS011;17218;54.070;10.012;2022-11-15T00:59:15;52.50;;;30.50;;
30420;SDS011;17218;54.070;10.012;2022-11-15T01:01:42;51.50;;;30.43;;
30420;SDS011;17218;54.070;10.012;2022-11-15T01:04:09;50.37;;;29.10;;
30420;SDS011;17218;54.070;10.012;2022-11-15T01:06:35;52.47;;;31.37;;
30420;SDS011;17218;54.070;10.012;2022-11-15T01:09:03;50.07;;;31.00;;
30420;SDS011;17218;54.070;10.012;2022-11-15T01:11:30;55.03;;;30.33;;
30420;SDS011;17218;54.070;10.012;2022-11-15T01:13:56;51.50;;;31.70;;
30420;SDS011;17218;54.070;10.012;2022-11-15T01:16:23;52.40;;;30.50;;
30420;SDS011;17218;54.070;10.012;2022-11-15T01:18:50;50.77;;;30.57;;
30420;SDS011;17218;54.070;10.012;2022-11-15T01:21:17;51.80;;;29.87;;
30420;SDS011;17218;54.070;10.012;2022-11-15T01:23:46;54.40;;;31.67;;
30420;SDS011;17218;54.070;10.012;2022-11-15T01:26:14;55.23;;;30.57;;
30420;SDS011;17218;54.070;10.012;2022-11-15T01:28:42;48.03;;;30.60;;
30420;SDS011;17218;54.070;10.012;2022-11-15T01:31:10;53.67;;;29.27;;
30420;SDS011;17218;54.070;10.012;2022-11-15T01:33:39;55.93;;;32.30;;
30420;SDS011;17218;54.070;10.012;2022-11-15T01:36:06;51.50;;;30.60;;
30420;SDS011;17218;54.070;10.012;2022-11-15T01:38:34;50.90;;;30.50;;
30420;SDS011;17218;54.070;10.012;2022-11-15T01:41:00;50.13;;;29.73;;
30420;SDS011;17218;54.070;10.012;2022-11-15T01:43:29;56.47;;;30.60;;
30420;SDS011;17218;54.070;10.012;2022-11-15T01:45:58;48.23;;;29.63;;
30420;SDS011;17218;54.070;10.012;2022-11-15T01:48:29;51.00;;;29.83;;
30420;SDS011;17218;54.070;10.012;2022-11-15T01:50:58;51.27;;;29.47;;
30420;SDS011;17218;54.070;10.012;2022-11-15T01:53:27;47.90;;;29.93;;
30420;SDS011;17218;54.070;10.012;2022-11-15T01:55:55;51.80;;;30.60;;
30420;SDS011;17218;54.070;10.012;2022-11-15T01:58:22;55.23;;;30.27;;
30420;SDS011;17218;54.070;10.012;2022-11-15T02:00:50;51.67;;;31.27;;
30420;SDS011;17218;54.070;10.012;2022-11-15T02:03:18;51.17;;;30.13;;
30420;SDS011;17218;54.070;10.012;2022-11-15T02:05:46;53.77;;;30.10;;
30420;SDS011;17218;54.070;10.012;2022-11-15T02:08:13;51.20;;;30.43;;
30420;SDS011;17218;54.070;10.012;2022-11-15T02:10:45;56.10;;;32.20;;
30420;SDS011;17218;54.070;10.012;2022-11-15T02:13:11;55.60;;;31.27;;
30420;SDS011;17218;54.070;10.012;2022-11-15T02:15:40;53.17;;;30.50;;
30420;SDS011;17218;54.070;10.012;2022-11-15T02:18:15;55.33;;;31.70;;
30420;SDS011;17218;54.070;10.012;2022-11-15T02:21:03;50.23;;;29.60;;
30420;SDS011;17218;54.070;10.012;2022-11-15T02:23:52;49.33;;;30.43;;
30420;SDS011;17218;54.070;10.012;2022-11-15T02:26:36;48.13;;;28.40;;
30420;SDS011;17218;54.070;10.012;2022-11-15T02:29:27;43.70;;;26.90;;
30420;SDS011;17218;54.070;10.012;2022-11-15T02:32:09;41.97;;;26.90;;
30420;SDS011;17218;54.070;10.012;2022-11-15T02:34:42;46.10;;;29.20;;
30420;SDS011;17218;54.070;10.012;2022-11-15T02:37:19;46.77;;;27.70;;
30420;SDS011;17218;54.070;10.012;2022-11-15T02:39:53;46.77;;;27.57;;
30420;SDS011;17218;54.070;10.012;2022-11-15T02:42:26;47.20;;;27.93;;
30420;SDS011;17218;54.070;10.012;2022-11-15T02:45:17;49.73;;;27.83;;
30420;SDS011;17218;54.070;10.012;2022-11-15T02:47:49;43.60;;;27.40;;
30420;SDS011;17218;54.070;10.012;2022-11-15T02:50:20;44.73;;;28.00;;
30420;SDS011;17218;54.070;10.012;2022-11-15T02:52:51;43.77;;;27.80;;
30420;SDS011;17218;54.070;10.012;2022-11-15T02:55:28;45.07;;;27.73;;
30420;SDS011;17218;54.070;10.012;2022-11-15T02:58:01;42.23;;;26.40;;
30420;SDS011;17218;54.070;10.012;2022-11-15T03:00:43;46.53;;;27.63;;
30420;SDS011;17218;54.070;10.012;2022-11-15T03:03:33;43.83;;;27.10;;
30420;SDS011;17218;54.070;10.012;2022-11-15T03:06:20;43.03;;;26.10;;
30420;SDS011;17218;54.070;10.012;2022-11-15T03:08:56;40.13;;;25.00;;
30420;SDS011;17218;54.070;10.012;2022-11-15T03:11:29;40.87;;;25.63;;
30420;SDS011;17218;54.070;10.012;2022-11-15T03:14:02;40.33;;;26.70;;
30420;SDS011;17218;54.070;10.012;2022-11-15T03:16:41;41.50;;;25.53;;
30420;SDS011;17218;54.070;10.012;2022-11-15T03:19:17;37.60;;;24.47;;
30420;SDS011;17218;54.070;10.012;2022-11-15T03:21:50;38.17;;;24.50;;
30420;SDS011;17218;54.070;10.012;2022-11-15T03:24:18;38.67;;;25.17;;
30420;SDS011;17218;54.070;10.012;2022-11-15T03:26:47;36.80;;;25.00;;
30420;SDS011;17218;54.070;10.012;2022-11-15T03:29:16;38.20;;;23.93;;
30420;SDS011;17218;54.070;10.012;2022-11-15T03:31:47;40.93;;;24.30;;
30420;SDS011;17218;54.070;10.012;2022-11-15T03:34:22;39.77;;;25.50;;
30420;SDS011;17218;54.070;10.012;2022-11-15T03:36:53;42.30;;;25.70;;
30420;SDS011;17218;54.070;10.012;2022-11-15T03:39:20;42.77;;;25.77;;
30420;SDS011;17218;54.070;10.012;2022-11-15T03:41:50;47.87;;;27.73;;
30420;SDS011;17218;54.070;10.012;2022-11-15T03:44:26;40.20;;;25.20;;
30420;SDS011;17218;54.070;10.012;2022-11-15T03:47:00;40.43;;;26.10;;
30420;SDS011;17218;54.070;10.012;2022-11-15T03:49:34;41.77;;;26.17;;
30420;SDS011;17218;54.070;10.012;2022-11-15T03:52:03;40.23;;;25.83;;
30420;SDS011;17218;54.070;10.012;2022-11-15T03:54:31;42.60;;;25.97;;
30420;SDS011;17218;54.070;10.012;2022-11-15T03:56:57;39.57;;;25.13;;
30420;SDS011;17218;54.070;10.012;2022-11-15T03:59:24;47.27;;;26.37;;
30420;SDS011;17218;54.070;10.012;2022-11-15T04:01:50;45.83;;;26.63;;
30420;SDS011;17218;54.070;10.012;2022-11-15T04:04:17;44.60;;;27.20;;
30420;SDS011;17218;54.070;10.012;2022-11-15T04:06:45;46.47;;;28.50;;
30420;SDS011;17218;54.070;10.012;2022-11-15T04:09:12;50.70;;;28.97;;
30420;SDS011;17218;54.070;10.012;2022-11-15T04:11:38;49.10;;;27.83;;
30420;SDS011;17218;54.070;10.012;2022-11-15T04:14:05;45.37;;;29.20;;
30420;SDS011;17218;54.070;10.012;2022-11-15T04:16:34;48.90;;;28.43;;
30420;SDS011;17218;54.070;10.012;2022-11-15T04:19:00;55.40;;;29.17;;
30420;SDS011;17218;54.070;10.012;2022-11-15T04:21:46;52.57;;;27.63;;
30420;SDS011;17218;54.070;10.012;2022-11-15T04:24:30;47.07;;;28.43;;
30420;SDS011;17218;54.070;10.012;2022-11-15T04:26:56;48.73;;;28.00;;
30420;SDS011;17218;54.070;10.012;2022-11-15T04:29:23;50.20;;;28.63;;
30420;SDS011;17218;54.070;10.012;2022-11-15T04:32:02;46.30;;;27.33;;
30420;SDS011;17218;54.070;10.012;2022-11-15T04:34:29;43.90;;;27.17;;
30420;SDS011;17218;54.070;10.012;2022-11-15T04:36:57;49.50;;;27.83;;
30420;SDS011;17218;54.070;10.012;2022-11-15T04:39:40;42.00;;;25.37;;
30420;SDS011;17218;54.070;10.012;2022-11-15T04:42:07;41.67;;;25.67;;
30420;SDS011;17218;54.070;10.012;2022-11-15T04:44:34;43.00;;;26.37;;
30420;SDS011;17218;54.070;10.012;2022-11-15T04:47:01;42.73;;;25.97;;
30420;SDS011;17218;54.070;10.012;2022-11-15T04:49:28;40.63;;;26.63;;
30420;SDS011;17218;54.070;10.012;2022-11-15T04:51:55;39.50;;;24.17;;
30420;SDS011;17218;54.070;10.012;2022-11-15T04:54:22;37.50;;;25.17;;
30420;SDS011;17218;54.070;10.012;2022-11-15T04:56:49;38.87;;;24.13;;
30420;SDS011;17218;54.070;10.012;2022-11-15T04:59:16;36.70;;;25.30;;
30420;SDS011;17218;54.070;10.012;2022-11-15T05:01:42;38.40;;;25.07;;
30420;SDS011;17218;54.070;10.012;2022-11-15T05:04:09;38.77;;;25.07;;
30420;SDS011;17218;54.070;10.012;2022-11-15T05:06:47;36.30;;;23.97;;
30420;SDS011;17218;54.070;10.012;2022-11-15T05:09:15;34.50;;;23.80;;
30420;SDS011;17218;54.070;10.012;2022-11-15T05:11:43;36.30;;;24.07;;
30420;SDS011;17218;54.070;10.012;2022-11-15T05:14:10;38.20;;;24.47;;
30420;SDS011;17218;54.070;10.012;2022-11-15T05:16:37;39.13;;;25.03;;
30420;SDS011;17218;54.070;10.012;2022-11-15T05:19:05;38.97;;;23.03;;
30420;SDS011;17218;54.070;10.012;2022-11-15T05:21:32;39.30;;;24.37;;
30420;SDS011;17218;54.070;10.012;2022-11-15T05:23:59;38.03;;;23.70;;
30420;SDS011;17218;54.070;10.012;2022-11-15T05:26:26;33.70;;;23.47;;
30420;SDS011;17218;54.070;10.012;2022-11-15T05:28:55;37.97;;;23.83;;
30420;SDS011;17218;54.070;10.012;2022-11-15T05:31:23;39.07;;;24.60;;
30420;SDS011;17218;54.070;10.012;2022-11-15T05:33:51;36.30;;;24.23;;
30420;SDS011;17218;54.070;10.012;2022-11-15T05:36:19;36.10;;;23.37;;
30420;SDS011;17218;54.070;10.012;2022-11-15T05:38:52;37.57;;;24.30;;
30420;SDS011;17218;54.070;10.012;2022-11-15T05:41:20;37.97;;;25.17;;
30420;SDS011;17218;54.070;10.012;2022-11-15T05:43:52;37.43;;;24.77;;
30420;SDS011;17218;54.070;10.012;2022-11-15T05:46:21;41.37;;;24.57;;
30420;SDS011;17218;54.070;10.012;2022-11-15T05:48:48;39.37;;;24.83;;
30420;SDS011;17218;54.070;10.012;2022-11-15T05:51:18;38.47;;;24.90;;
30420;SDS011;17218;54.070;10.012;2022-11-15T05:53:47;38.47;;;25.20;;
30420;SDS011;17218;54.070;10.012;2022-11-15T05:56:14;42.67;;;26.03;;
30420;SDS011;17218;54.070;10.012;2022-11-15T05:58:41;39.20;;;25.77;;
30420;SDS011;17218;54.070;10.012;2022-11-15T06:01:10;35.03;;;24.40;;
30420;SDS011;17218;54.070;10.012;2022-11-15T06:03:37;37.03;;;23.43;;
30420;SDS011;17218;54.070;10.012;2022-11-15T06:06:04;39.37;;;25.23;;
30420;SDS011;17218;54.070;10.012;2022-11-15T06:08:30;35.27;;;23.77;;
30420;SDS011;17218;54.070;10.012;2022-11-15T06:11:02;38.30;;;24.93;;
30420;SDS011;17218;54.070;10.012;2022-11-15T06:13:29;36.50;;;24.57;;
30420;SDS011;17218;54.070;10.012;2022-11-15T06:15:56;36.10;;;25.57;;
30420;SDS011;17218;54.070;10.012;2022-11-15T06:18:24;38.00;;;25.03;;
30420;SDS011;17218;54.070;10.012;2022-11-15T06:20:50;44.80;;;26.27;;
30420;SDS011;17218;54.070;10.012;2022-11-15T06:23:17;40.70;;;26.47;;
30420;SDS011;17218;54.070;10.012;2022-11-15T06:25:44;43.10;;;29.77;;
30420;SDS011;17218;54.070;10.012;2022-11-15T06:28:10;43.77;;;26.80;;
30420;SDS011;17218;54.070;10.012;2022-11-15T06:30:37;42.30;;;26.77;;
30420;SDS011;17218;54.070;10.012;2022-11-15T06:33:04;43.33;;;27.83;;
30420;SDS011;17218;54.070;10.012;2022-11-15T06:35:34;44.07;;;28.60;;
30420;SDS011;17218;54.070;10.012;2022-11-15T06:38:02;50.63;;;30.30;;
30420;SDS011;17218;54.070;10.012;2022-11-15T06:40:30;45.40;;;29.10;;
30420;SDS011;17218;54.070;10.012;2022-11-15T06:42:58;40.20;;;27.53;;
30420;SDS011;17218;54.070;10.012;2022-11-15T06:45:26;45.77;;;29.47;;
30420;SDS011;17218;54.070;10.012;2022-11-15T06:47:53;44.27;;;28.27;;
30420;SDS011;17218;54.070;10.012;2022-11-15T06:50:19;45.17;;;28.13;;
30420;SDS011;17218;54.070;10.012;2022-11-15T06:52:47;46.53;;;27.90;;
30420;SDS011;17218;54.070;10.012;2022-11-15T06:55:14;43.43;;;27.67;;
30420;SDS011;17218;54.070;10.012;2022-11-15T06:57:45;41.63;;;27.10;;
30420;SDS011;17218;54.070;10.012;2022-11-15T07:00:13;43.23;;;27.13;;
30420;SDS011;17218;54.070;10.012;2022-11-15T07:02:40;41.83;;;25.83;;
30420;SDS011;17218;54.070;10.012;2022-11-15T07:05:07;42.10;;;27.00;;
30420;SDS011;17218;54.070;10.012;2022-11-15T07:07:34;41.57;;;26.10;;
30420;SDS011;17218;54.070;10.012;2022-11-15T07:10:02;41.77;;;26.47;;
30420;SDS011;17218;54.070;10.012;2022-11-15T07:12:29;38.70;;;25.90;;
30420;SDS011;17218;54.070;10.012;2022-11-15T07:14:56;41.07;;;25.80;;
30420;SDS011;17218;54.070;10.012;2022-11-15T07:17:22;39.47;;;24.00;;
30420;SDS011;17218;54.070;10.012;2022-11-15T07:19:49;36.23;;;23.43;;
30420;SDS011;17218;54.070;10.012;2022-11-15T07:22:16;34.37;;;23.73;;
30420;SDS011;17218;54.070;10.012;2022-11-15T07:24:42;38.17;;;25.43;;
30420;SDS011;17218;54.070;10.012;2022-11-15T07:27:10;37.00;;;24.03;;
30420;SDS011;17218;54.070;10.012;2022-11-15T07:29:37;35.53;;;24.10;;
30420;SDS011;17218;54.070;10.012;2022-11-15T07:32:03;34.70;;;23.13;;
30420;SDS011;17218;54.070;10.012;2022-11-15T07:34:30;36.10;;;22.63;;
30420;SDS011;17218;54.070;10.012;2022-11-15T07:36:56;33.40;;;22.57;;
30420;SDS011;17218;54.070;10.012;2022-11-15T07:39:23;37.20;;;23.87;;
30420;SDS011;17218;54.070;10.012;2022-11-15T07:41:50;33.77;;;23.13;;
30420;SDS011;17218;54.070;10.012;2022-11-15T07:44:38;34.23;;;22.67;;
30420;SDS011;17218;54.070;10.012;2022-11-15T07:47:04;34.37;;;21.23;;
30420;SDS011;17218;54.070;10.012;2022-11-15T07:49:31;31.27;;;22.37;;
30420;SDS011;17218;54.070;10.012;2022-11-15T07:51:57;33.30;;;22.33;;
30420;SDS011;17218;54.070;10.012;2022-11-15T07:54:24;30.80;;;20.83;;
30420;SDS011;17218;54.070;10.012;2022-11-15T07:56:51;31.67;;;23.10;;
30420;SDS011;17218;54.070;10.012;2022-11-15T07:59:17;32.30;;;20.47;;
30420;SDS011;17218;54.070;10.012;2022-11-15T08:01:45;33.97;;;23.03;;
30420;SDS011;17218;54.070;10.012;2022-11-15T08:04:12;31.50;;;21.93;;
30420;SDS011;17218;54.070;10.012;2022-11-15T08:06:39;27.57;;;20.97;;
30420;SDS011;17218;54.070;10.012;2022-11-15T08:09:05;32.20;;;21.20;;
30420;SDS011;17218;54.070;10.012;2022-11-15T08:11:32;33.20;;;21.77;;
30420;SDS011;17218;54.070;10.012;2022-11-15T08:13:59;32.50;;;23.13;;
30420;SDS011;17218;54.070;10.012;2022-11-15T08:16:25;29.43;;;21.27;;
30420;SDS011;17218;54.070;10.012;2022-11-15T08:18:53;30.43;;;21.40;;
30420;SDS011;17218;54.070;10.012;2022-11-15T08:21:20;32.67;;;22.10;;
30420;SDS011;17218;54.070;10.012;2022-11-15T08:23:47;32.90;;;20.93;;
30420;SDS011;17218;54.070;10.012;2022-11-15T08:26:14;30.17;;;20.93;;
30420;SDS011;17218;54.070;10.012;2022-11-15T08:28:41;31.10;;;21.40;;
30420;SDS011;17218;54.070;10.012;2022-11-15T08:31:11;30.37;;;21.13;;
30420;SDS011;17218;54.070;10.012;2022-11-15T08:33:39;30.20;;;21.53;;
30420;SDS011;17218;54.070;10.012;2022-11-15T08:36:10;34.23;;;21.37;;
30420;SDS011;17218;54.070;10.012;2022-11-15T08:38:39;29.03;;;20.43;;
30420;SDS011;17218;54.070;10.012;2022-11-15T08:41:05;29.33;;;20.23;;
30420;SDS011;17218;54.070;10.012;2022-11-15T08:43:32;32.10;;;21.30;;
30420;SDS011;17218;54.070;10.012;2022-11-15T08:45:59;30.10;;;19.53;;
30420;SDS011;17218;54.070;10.012;2022-11-15T08:48:25;35.23;;;20.17;;
30420;SDS011;17218;54.070;10.012;2022-11-15T08:50:53;28.53;;;20.03;;
30420;SDS011;17218;54.070;10.012;2022-11-15T08:53:21;28.03;;;19.77;;
30420;SDS011;17218;54.070;10.012;2022-11-15T08:55:48;27.13;;;20.10;;
30420;SDS011;17218;54.070;10.012;2022-11-15T08:58:15;27.77;;;19.80;;
30420;SDS011;17218;54.070;10.012;2022-11-15T09:00:41;36.37;;;21.20;;
30420;SDS011;17218;54.070;10.012;2022-11-15T09:03:08;27.43;;;19.07;;
30420;SDS011;17218;54.070;10.012;2022-11-15T09:05:35;27.40;;;19.30;;
30420;SDS011;17218;54.070;10.012;2022-11-15T09:08:03;28.47;;;19.97;;
30420;SDS011;17218;54.070;10.012;2022-11-15T09:10:31;27.10;;;19.70;;
30420;SDS011;17218;54.070;10.012;2022-11-15T09:12:58;27.27;;;19.43;;
30420;SDS011;17218;54.070;10.012;2022-11-15T09:15:24;26.17;;;19.33;;
30420;SDS011;17218;54.070;10.012;2022-11-15T09:17:51;26.80;;;19.77;;
30420;SDS011;17218;54.070;10.012;2022-11-15T09:20:18;27.17;;;19.47;;
30420;SDS011;17218;54.070;10.012;2022-11-15T09:22:44;26.97;;;18.70;;
30420;SDS011;17218;54.070;10.012;2022-11-15T09:25:11;24.55;;;18.27;;
30420;SDS011;17218;54.070;10.012;2022-11-15T09:27:39;27.40;;;19.73;;
30420;SDS011;17218;54.070;10.012;2022-11-15T09:30:06;26.57;;;18.17;;
30420;SDS011;17218;54.070;10.012;2022-11-15T09:32:33;25.37;;;18.50;;
30420;SDS011;17218;54.070;10.012;2022-11-15T09:35:00;25.13;;;18.03;;
30420;SDS011;17218;54.070;10.012;2022-11-15T09:37:28;26.40;;;18.20;;
30420;SDS011;17218;54.070;10.012;2022-11-15T09:39:54;25.33;;;18.70;;
30420;SDS011;17218;54.070;10.012;2022-11-15T09:42:24;23.52;;;17.00;;
30420;SDS011;17218;54.070;10.012;2022-11-15T09:45:03;25.00;;;17.70;;
30420;SDS011;17218;54.070;10.012;2022-11-15T09:47:49;26.23;;;17.80;;
30420;SDS011;17218;54.070;10.012;2022-11-15T09:50:31;25.67;;;19.17;;
30420;SDS011;17218;54.070;10.012;2022-11-15T09:53:03;25.37;;;19.17;;
30420;SDS011;17218;54.070;10.012;2022-11-15T09:55:32;27.13;;;18.98;;
30420;SDS011;17218;54.070;10.012;2022-11-15T09:58:09;27.63;;;18.73;;
30420;SDS011;17218;54.070;10.012;2022-11-15T10:00:46;26.90;;;19.20;;
30420;SDS011;17218;54.070;10.012;2022-11-15T10:03:18;24.77;;;17.65;;
30420;SDS011;17218;54.070;10.012;2022-11-15T10:05:52;25.92;;;18.73;;
30420;SDS011;17218;54.070;10.012;2022-11-15T10:08:26;22.58;;;17.33;;
30420;SDS011;17218;54.070;10.012;2022-11-15T10:11:02;24.17;;;17.98;;
30420;SDS011;17218;54.070;10.012;2022-11-15T10:13:32;22.75;;;16.98;;
30420;SDS011;17218;54.070;10.012;2022-11-15T10:16:03;21.17;;;16.17;;
30420;SDS011;17218;54.070;10.012;2022-11-15T10:18:39;20.92;;;16.27;;
30420;SDS011;17218;54.070;10.012;2022-11-15T10:21:15;25.42;;;16.70;;
30420;SDS011;17218;54.070;10.012;2022-11-15T10:23:43;23.35;;;17.08;;
30420;SDS011;17218;54.070;10.012;2022-11-15T10:26:12;21.65;;;15.75;;
30420;SDS011;17218;54.070;10.012;2022-11-15T10:28:42;21.27;;;15.55;;
30420;SDS011;17218;54.070;10.012;2022-11-15T10:31:20;22.88;;;16.10;;
30420;SDS011;17218;54.070;10.012;2022-11-15T10:33:48;20.45;;;16.00;;
30420;SDS011;17218;54.070;10.012;2022-11-15T10:36:21;20.92;;;15.48;;
30420;SDS011;17218;54.070;10.012;2022-11-15T10:38:54;21.42;;;15.52;;
30420;SDS011;17218;54.070;10.012;2022-11-15T10:41:29;20.80;;;15.63;;
30420;SDS011;17218;54.070;10.012;2022-11-15T10:44:06;22.73;;;15.45;;
30420;SDS011;17218;54.070;10.012;2022-11-15T10:46:38;21.63;;;16.05;;
30420;SDS011;17218;54.070;10.012;2022-11-15T10:49:12;21.70;;;15.00;;
30420;SDS011;17218;54.070;10.012;2022-11-15T10:51:41;20.60;;;16.55;;
30420;SDS011;17218;54.070;10.012;2022-11-15T10:54:09;20.08;;;15.93;;
30420;SDS011;17218;54.070;10.012;2022-11-15T10:56:39;23.25;;;15.68;;
30420;SDS011;17218;54.070;10.012;2022-11-15T10:59:13;21.05;;;15.85;;
30420;SDS011;17218;54.070;10.012;2022-11-15T11:01:47;18.35;;;14.95;;
30420;SDS011;17218;54.070;10.012;2022-11-15T11:04:14;19.58;;;15.00;;
30420;SDS011;17218;54.070;10.012;2022-11-15T11:06:48;20.02;;;14.85;;
30420;SDS011;17218;54.070;10.012;2022-11-15T11:09:23;25.45;;;15.55;;
30420;SDS011;17218;54.070;10.012;2022-11-15T11:11:55;21.15;;;16.00;;
30420;SDS011;17218;54.070;10.012;2022-11-15T11:14:23;21.35;;;15.55;;
30420;SDS011;17218;54.070;10.012;2022-11-15T11:16:54;20.08;;;14.77;;
30420;SDS011;17218;54.070;10.012;2022-11-15T11:19:33;25.17;;;15.30;;
30420;SDS011;17218;54.070;10.012;2022-11-15T11:22:17;18.08;;;14.10;;
30420;SDS011;17218;54.070;10.012;2022-11-15T11:24:52;16.52;;;14.30;;
30420;SDS011;17218;54.070;10.012;2022-11-15T11:27:31;19.00;;;14.52;;
30420;SDS011;17218;54.070;10.012;2022-11-15T11:30:08;19.77;;;14.60;;
30420;SDS011;17218;54.070;10.012;2022-11-15T11:32:54;21.17;;;14.70;;
30420;SDS011;17218;54.070;10.012;2022-11-15T11:35:29;19.70;;;15.25;;
30420;SDS011;17218;54.070;10.012;2022-11-15T11:38:02;17.92;;;14.02;;
30420;SDS011;17218;54.070;10.012;2022-11-15T11:40:40;16.33;;;13.90;;
30420;SDS011;17218;54.070;10.012;2022-11-15T11:43:12;18.80;;;13.60;;
30420;SDS011;17218;54.070;10.012;2022-11-15T11:45:53;20.08;;;14.60;;
30420;SDS011;17218;54.070;10.012;2022-11-15T11:48:39;20.52;;;14.32;;
30420;SDS011;17218;54.070;10.012;2022-11-15T11:51:10;17.10;;;14.05;;
30420;SDS011;17218;54.070;10.012;2022-11-15T11:53:43;15.38;;;13.25;;
30420;SDS011;17218;54.070;10.012;2022-11-15T11:56:18;16.85;;;14.00;;
30420;SDS011;17218;54.070;10.012;2022-11-15T11:58:56;15.48;;;12.95;;
30420;SDS011;17218;54.070;10.012;2022-11-15T12:01:28;16.98;;;13.15;;
30420;SDS011;17218;54.070;10.012;2022-11-15T12:04:03;16.73;;;12.73;;
30420;SDS011;17218;54.070;10.012;2022-11-15T12:06:37;16.45;;;12.60;;
30420;SDS011;17218;54.070;10.012;2022-11-15T12:09:11;21.80;;;14.52;;
30420;SDS011;17218;54.070;10.012;2022-11-15T12:11:46;17.65;;;14.35;;
30420;SDS011;17218;54.070;10.012;2022-11-15T12:14:24;15.82;;;12.70;;
30420;SDS011;17218;54.070;10.012;2022-11-15T12:16:54;20.30;;;14.60;;
30420;SDS011;17218;54.070;10.012;2022-11-15T12:19:22;16.23;;;13.40;;
30420;SDS011;17218;54.070;10.012;2022-11-15T12:21:50;15.02;;;12.27;;
30420;SDS011;17218;54.070;10.012;2022-11-15T12:24:24;15.55;;;12.82;;
30420;SDS011;17218;54.070;10.012;2022-11-15T12:26:56;16.50;;;12.38;;
30420;SDS011;17218;54.070;10.012;2022-11-15T12:29:26;17.17;;;12.85;;
30420;SDS011;17218;54.070;10.012;2022-11-15T12:31:57;16.50;;;11.93;;
30420;SDS011;17218;54.070;10.012;2022-11-15T12:34:34;16.17;;;13.23;;
30420;SDS011;17218;54.070;10.012;2022-11-15T12:40:31;14.85;;;12.18;;
30420;SDS011;17218;54.070;10.012;2022-11-15T12:46:01;16.55;;;12.82;;
30420;SDS011;17218;54.070;10.012;2022-11-15T12:48:45;14.00;;;11.77;;
30420;SDS011;17218;54.070;10.012;2022-11-15T12:51:18;20.08;;;12.68;;
30420;SDS011;17218;54.070;10.012;2022-11-15T12:53:46;16.27;;;13.00;;
30420;SDS011;17218;54.070;10.012;2022-11-15T12:56:22;16.50;;;12.43;;
30420;SDS011;17218;54.070;10.012;2022-11-15T12:58:54;16.67;;;13.00;;
30420;SDS011;17218;54.070;10.012;2022-11-15T13:04:22;15.48;;;11.93;;
30420;SDS011;17218;54.070;10.012;2022-11-15T13:06:52;17.13;;;12.82;;
30420;SDS011;17218;54.070;10.012;2022-11-15T13:18:29;15.85;;;11.65;;
30420;SDS011;17218;54.070;10.012;2022-11-15T13:21:04;16.42;;;11.45;;
30420;SDS011;17218;54.070;10.012;2022-11-15T13:24:03;13.85;;;10.85;;
30420;SDS011;17218;54.070;10.012;2022-11-15T13:26:31;15.35;;;11.77;;
30420;SDS011;17218;54.070;10.012;2022-11-15T13:28:57;14.43;;;11.30;;
30420;SDS011;17218;54.070;10.012;2022-11-15T13:31:29;15.32;;;12.23;;
30420;SDS011;17218;54.070;10.012;2022-11-15T13:34:02;13.98;;;10.80;;
30420;SDS011;17218;54.070;10.012;2022-11-15T13:36:40;16.25;;;11.63;;
30420;SDS011;17218;54.070;10.012;2022-11-15T13:39:13;15.13;;;11.95;;
30420;SDS011;17218;54.070;10.012;2022-11-15T13:41:51;13.23;;;11.32;;
30420;SDS011;17218;54.070;10.012;2022-11-15T13:44:19;16.05;;;11.77;;
30420;SDS011;17218;54.070;10.012;2022-11-15T13:46:47;12.32;;;10.52;;
30420;SDS011;17218;54.070;10.012;2022-11-15T13:49:14;17.25;;;12.43;;
30420;SDS011;17218;54.070;10.012;2022-11-15T13:51:42;14.63;;;11.20;;
30420;SDS011;17218;54.070;10.012;2022-11-15T13:54:16;13.65;;;11.73;;
30420;SDS011;17218;54.070;10.012;2022-11-15T13:56:47;14.63;;;10.98;;
30420;SDS011;17218;54.070;10.012;2022-11-15T13:59:21;13.68;;;10.63;;
30420;SDS011;17218;54.070;10.012;2022-11-15T14:01:51;17.55;;;12.23;;
30420;SDS011;17218;54.070;10.012;2022-11-15T14:04:19;12.57;;;10.88;;
30420;SDS011;17218;54.070;10.012;2022-11-15T14:06:48;13.10;;;11.13;;
30420;SDS011;17218;54.070;10.012;2022-11-15T14:09:32;15.63;;;11.20;;
30420;SDS011;17218;54.070;10.012;2022-11-15T14:14:56;16.65;;;12.02;;
30420;SDS011;17218;54.070;10.012;2022-11-15T14:17:33;14.75;;;12.35;;
30420;SDS011;17218;54.070;10.012;2022-11-15T14:20:02;15.05;;;11.77;;
30420;SDS011;17218;54.070;10.012;2022-11-15T14:22:50;14.27;;;12.07;;
30420;SDS011;17218;54.070;10.012;2022-11-15T14:25:20;15.25;;;12.23;;
30420;SDS011;17218;54.070;10.012;2022-11-15T14:30:36;14.23;;;11.40;;
30420;SDS011;17218;54.070;10.012;2022-11-15T14:33:14;17.55;;;12.00;;
30420;SDS011;17218;54.070;10.012;2022-11-15T14:35:45;13.68;;;11.23;;
30420;SDS011;17218;54.070;10.012;2022-11-15T14:38:12;17.00;;;12.32;;
30420;SDS011;17218;54.070;10.012;2022-11-15T14:40:40;15.20;;;11.50;;
30420;SDS011;17218;54.070;10.012;2022-11-15T14:43:08;17.33;;;12.40;;
30420;SDS011;17218;54.070;10.012;2022-11-15T14:45:36;15.55;;;11.13;;
30420;SDS011;17218;54.070;10.012;2022-11-15T14:48:03;13.38;;;11.60;;
30420;SDS011;17218;54.070;10.012;2022-11-15T14:50:30;18.67;;;11.77;;